Time;durP1;ratioP1;P1;durP2;ratioP2;P2;SDS_P1;SDS_P2;PMS_P1;PMS_P2;Temp;Humidity;BMP_temperature;BMP_pressure;BME280_temperature;BME280_humidity;BME280_pressure;Samples;Min_cycle;Max_cycle;Signal;HPM_P1;HPM_P2
2022/10/23 00:01:43;;;;;;;1.75;0.10;;;;;;;14.59;100.00;101264.94;4929245;29;20075;-64
2022/10/23 00:04:13;;;;;;;3.20;0.13;;;;;;;14.51;100.00;101277.16;4930404;29;20042;-62
2022/10/23 00:06:39;;;;;;;2.47;0.10;;;;;;;14.43;100.00;101274.47;4928564;29;20046;-66
2022/10/23 00:09:07;;;;;;;2.80;0.20;;;;;;;14.27;100.00;101269.84;4930677;29;20066;-64
2022/10/23 00:11:35;;;;;;;2.53;0.10;;;;;;;14.19;100.00;101277.63;4928065;29;20027;-67
2022/10/23 00:14:03;;;;;;;1.95;0.17;;;;;;;14.14;100.00;101282.50;4930985;29;20459;-64
2022/10/23 00:16:29;;;;;;;2.60;0.45;;;;;;;14.10;100.00;101268.88;4928802;29;20054;-64
2022/10/23 00:18:55;;;;;;;3.85;0.10;;;;;;;14.21;100.00;101270.44;4931678;29;20546;-61
2022/10/23 00:21:21;;;;;;;1.25;0.10;;;;;;;14.30;100.00;101261.69;4929864;29;20024;-63
2022/10/23 00:23:47;;;;;;;1.77;0.10;;;;;;;14.34;100.00;101256.97;4929868;29;20047;-62
2022/10/23 00:26:14;;;;;;;1.50;0.05;;;;;;;14.39;100.00;101257.34;4931007;29;20044;-61
2022/10/23 00:28:42;;;;;;;3.72;0.57;;;;;;;14.42;100.00;101247.41;4929866;29;20040;-61
2022/10/23 00:31:07;;;;;;;1.48;0.10;;;;;;;14.45;100.00;101251.53;4930950;29;20035;-64
2022/10/23 00:33:33;;;;;;;3.47;0.10;;;;;;;14.45;100.00;101249.72;4930528;29;20034;-61
2022/10/23 00:35:59;;;;;;;1.65;0.50;;;;;;;14.43;100.00;101243.81;4928635;29;20075;-63
2022/10/23 00:38:24;;;;;;;1.95;0.20;;;;;;;14.41;100.00;101253.63;4931614;29;20038;-66
2022/10/23 00:40:50;;;;;;;2.25;0.10;;;;;;;14.39;100.00;101249.47;4929411;29;20320;-63
2022/10/23 00:43:18;;;;;;;0.73;0.10;;;;;;;14.45;100.00;101248.91;4931149;29;20039;-64
2022/10/23 00:45:44;;;;;;;0.90;0.03;;;;;;;14.51;100.00;101248.31;4928891;29;20039;-64
2022/10/23 00:48:09;;;;;;;1.65;0.20;;;;;;;14.55;100.00;101244.41;4928787;29;20040;-60
2022/10/23 00:50:35;;;;;;;0.73;0.20;;;;;;;14.54;100.00;101256.69;4928439;29;20123;-62
2022/10/23 00:53:03;;;;;;;1.42;0.10;;;;;;;14.56;100.00;101259.19;4927844;29;20032;-62
2022/10/23 00:55:31;;;;;;;2.38;0.10;;;;;;;14.47;100.00;101253.03;4928779;29;20080;-65
2022/10/23 00:57:56;;;;;;;1.80;0.10;;;;;;;14.40;100.00;101251.13;4932037;29;20067;-62
2022/10/23 01:00:26;;;;;;;2.72;0.20;;;;;;;14.28;100.00;101253.97;4929990;29;20028;-62
2022/10/23 01:02:54;;;;;;;1.45;0.10;;;;;;;14.23;100.00;101255.38;4927949;29;20043;-62
2022/10/23 01:05:26;;;;;;;1.10;0.15;;;;;;;14.21;100.00;101246.84;4927376;29;20466;-61
2022/10/23 01:08:09;;;;;;;1.80;0.10;;;;;;;14.23;100.00;101247.50;4929035;29;20180;-63
2022/10/23 01:10:53;;;;;;;0.93;0.10;;;;;;;14.28;100.00;101253.13;4921871;29;20507;-61
2022/10/23 01:13:58;;;;;;;0.38;0.10;;;;;;;14.26;100.00;101247.22;4928027;29;20043;-64
2022/10/23 01:17:11;;;;;;;1.65;0.10;;;;;;;14.23;100.00;101250.97;4926596;29;20078;-64
2022/10/23 01:19:42;;;;;;;1.55;0.03;;;;;;;14.21;100.00;101252.91;4927588;29;20039;-65
2022/10/23 01:22:31;;;;;;;3.22;0.10;;;;;;;14.17;100.00;101245.53;4928083;29;20126;-64
2022/10/23 01:25:02;;;;;;;1.00;0.10;;;;;;;14.16;100.00;101255.19;4922661;29;20063;-62
2022/10/23 01:27:37;;;;;;;2.58;0.20;;;;;;;14.22;100.00;101241.44;4926575;29;20074;-64
2022/10/23 01:30:08;;;;;;;;;;;;;;;14.23;100.00;101248.34;4917963;29;20031;-61
2022/10/23 01:32:43;;;;;;;0.43;0.10;;;;;;;14.29;100.00;101247.75;4928141;29;19919;-63
2022/10/23 01:35:28;;;;;;;0.20;0.10;;;;;;;14.34;100.00;101241.22;4925448;29;20380;-62
2022/10/23 01:37:58;;;;;;;0.67;0.10;;;;;;;14.37;100.00;101236.53;4911067;29;20047;-63
2022/10/23 01:40:32;;;;;;;0.20;0.10;;;;;;;14.39;100.00;101241.59;4928160;29;20287;-61
2022/10/23 01:43:03;;;;;;;3.67;0.10;;;;;;;14.37;100.00;101241.75;4925656;29;20043;-63
2022/10/23 01:45:39;;;;;;;2.25;0.20;;;;;;;14.39;100.00;101233.75;4922046;29;20050;-63
2022/10/23 01:48:08;;;;;;;1.17;0.10;;;;;;;14.48;100.00;101233.72;4919454;29;20090;-63
2022/10/23 01:50:36;;;;;;;4.60;0.20;;;;;;;14.52;100.00;101229.81;4928227;29;20027;-61
2022/10/23 01:53:03;;;;;;;3.03;0.10;;;;;;;14.56;100.00;101235.56;4928248;29;20114;-61
2022/10/23 01:55:31;;;;;;;0.40;0.10;;;;;;;14.55;100.00;101233.94;4922787;29;20042;-61
2022/10/23 01:57:58;;;;;;;2.28;0.10;;;;;;;14.54;100.00;101234.91;4923510;29;20122;-62
2022/10/23 02:00:23;;;;;;;0.13;0.10;;;;;;;14.49;100.00;101237.16;4929438;29;20027;-62
2022/10/23 02:02:51;;;;;;;3.00;0.10;;;;;;;14.46;100.00;101237.44;4925190;29;20051;-61
2022/10/23 02:05:28;;;;;;;3.97;0.20;;;;;;;14.39;100.00;101233.75;4928129;29;20226;-64
2022/10/23 02:07:54;;;;;;;1.85;0.10;;;;;;;14.36;100.00;101231.41;4911726;29;20481;-64
2022/10/23 02:10:22;;;;;;;1.20;0.13;;;;;;;14.31;100.00;101237.13;4925204;29;20118;-63
2022/10/23 02:13:07;;;;;;;1.48;0.10;;;;;;;14.27;100.00;101239.22;4927935;29;20035;-62
2022/10/23 02:15:49;;;;;;;2.63;0.10;;;;;;;14.23;100.00;101234.41;4929445;29;20039;-61
2022/10/23 02:18:17;;;;;;;2.13;0.10;;;;;;;14.24;100.00;101230.81;4913991;29;20500;-62
2022/10/23 02:21:06;;;;;;;0.50;0.30;;;;;;;14.22;100.00;101233.59;4928287;29;20518;-64
2022/10/23 02:23:41;;;;;;;2.85;0.10;;;;;;;14.25;100.00;101235.09;4925846;29;20091;-60
2022/10/23 02:26:21;;;;;;;1.63;0.10;;;;;;;14.24;100.00;101234.25;4926556;29;20150;-63
2022/10/23 02:28:58;;;;;;;4.22;0.22;;;;;;;14.28;100.00;101232.16;4924004;29;20035;-63
2022/10/23 02:31:24;;;;;;;3.03;0.30;;;;;;;14.32;100.00;101227.44;4927994;29;20043;-62
2022/10/23 02:33:50;;;;;;;1.65;0.13;;;;;;;14.31;100.00;101220.56;4926548;29;20032;-61
2022/10/23 02:36:17;;;;;;;1.40;0.52;;;;;;;14.32;100.00;101227.44;4929171;29;20032;-62
2022/10/23 02:38:44;;;;;;;3.00;0.10;;;;;;;14.34;100.00;101230.75;4928560;29;20063;-63
2022/10/23 02:41:20;;;;;;;0.30;0.15;;;;;;;14.35;100.00;101230.59;5200977;23;20106;-84
2022/10/23 02:43:53;;;;;;;1.05;0.10;;;;;;;14.36;100.00;101228.81;4985229;28;20038;-84
2022/10/23 02:46:25;;;;;;;1.42;0.10;;;;;;;14.32;100.00;101236.13;4981614;28;20038;-83
2022/10/23 02:49:09;;;;;;;3.33;0.10;;;;;;;14.31;100.00;101231.03;4949683;28;20035;-83
2022/10/23 02:52:00;;;;;;;0.82;0.10;;;;;;;14.32;100.00;101233.53;4949759;28;20035;-83
2022/10/23 02:55:10;;;;;;;0.35;0.10;;;;;;;14.31;100.00;101226.63;4952260;28;20142;-82
2022/10/23 02:57:45;;;;;;;0.55;0.22;;;;;;;14.34;100.00;101220.25;4969533;28;20440;-83
2022/10/23 03:00:17;;;;;;;5.32;0.10;;;;;;;14.36;100.00;101223.56;4966583;28;20467;-88
2022/10/23 03:02:53;;;;;;;1.83;0.10;;;;;;;14.33;100.00;101222.06;4969151;28;20105;-84
2022/10/23 03:05:23;;;;;;;1.30;0.10;;;;;;;14.33;100.00;101222.06;4964010;28;20348;-82
2022/10/23 03:07:50;;;;;;;3.78;0.10;;;;;;;14.31;100.00;101225.81;4968248;28;20125;-85
2022/10/23 03:10:16;;;;;;;2.05;0.10;;;;;;;14.28;100.00;101216.44;4984027;28;20461;-82
2022/10/23 03:12:41;;;;;;;1.20;0.10;;;;;;;14.25;100.00;101224.59;4988640;28;20049;-85
2022/10/23 03:15:07;;;;;;;1.77;0.10;;;;;;;14.26;100.00;101213.16;4966833;28;20162;-83
2022/10/23 03:17:33;;;;;;;3.53;0.10;;;;;;;14.28;100.00;101212.03;4960677;28;20066;-83
2022/10/23 03:19:58;;;;;;;3.53;0.17;;;;;;;14.31;100.00;101203.03;4968334;28;20117;-82
2022/10/23 03:22:24;;;;;;;2.25;0.20;;;;;;;14.34;100.00;101209.78;4969383;28;20054;-83
2022/10/23 03:24:49;;;;;;;3.35;0.28;;;;;;;14.40;100.00;101214.41;4968554;28;20548;-85
2022/10/23 03:27:15;;;;;;;1.05;0.10;;;;;;;14.44;100.00;101215.81;4969148;28;20037;-85
2022/10/23 03:29:41;;;;;;;1.05;0.10;;;;;;;14.45;100.00;101222.69;4966940;28;20378;-85
2022/10/23 03:32:06;;;;;;;1.98;0.20;;;;;;;14.48;100.00;101222.41;4969148;28;20541;-83
2022/10/23 03:34:32;;;;;;;1.20;0.10;;;;;;;14.50;100.00;101229.13;4967487;28;20034;-84
2022/10/23 03:36:57;;;;;;;1.63;0.10;;;;;;;14.49;100.00;101222.25;4969022;28;20042;-83
2022/10/23 03:39:23;;;;;;;0.93;0.10;;;;;;;14.49;100.00;101217.00;4966530;28;20138;-83
2022/10/23 03:41:48;;;;;;;2.80;0.20;;;;;;;14.49;100.00;101221.41;4969064;28;20051;-84
2022/10/23 03:44:13;;;;;;;0.55;0.10;;;;;;;14.49;100.00;101222.25;4967239;28;20031;-85
2022/10/23 03:46:39;;;;;;;3.08;0.20;;;;;;;14.48;100.00;101223.22;4971022;28;20046;-85
2022/10/23 03:49:05;;;;;;;0.88;0.10;;;;;;;14.48;100.00;101219.78;4968336;28;20030;-84
2022/10/23 03:51:30;;;;;;;1.30;0.20;;;;;;;14.47;100.00;101226.00;4971183;28;20422;-85
2022/10/23 03:53:56;;;;;;;1.77;0.10;;;;;;;14.42;100.00;101228.22;4970942;28;20490;-83
2022/10/23 03:56:21;;;;;;;1.63;0.13;;;;;;;14.33;100.00;101231.72;4970826;28;20035;-86
2022/10/23 03:58:47;;;;;;;0.60;0.10;;;;;;;14.29;100.00;101223.34;4967720;28;20085;-84
2022/10/23 04:01:13;;;;;;;0.10;0.05;;;;;;;14.27;100.00;101226.09;4968740;28;20053;-83
2022/10/23 04:03:38;;;;;;;1.27;0.10;;;;;;;14.28;100.00;101225.13;4971638;28;20058;-83
2022/10/23 04:06:04;;;;;;;2.47;0.10;;;;;;;14.33;100.00;101232.53;4969706;28;20110;-83
2022/10/23 04:08:29;;;;;;;1.85;0.10;;;;;;;14.33;100.00;101223.84;4967077;28;20038;-86
2022/10/23 04:10:54;;;;;;;0.35;0.10;;;;;;;14.34;100.00;101225.50;4969452;28;20023;-85
2022/10/23 04:13:20;;;;;;;4.78;0.10;;;;;;;14.37;100.00;101231.28;4967627;28;20460;-84
2022/10/23 04:15:50;;;;;;;2.33;0.10;;;;;;;14.42;100.00;101234.31;4966906;28;20034;-85
2022/10/23 04:18:16;;;;;;;0.47;0.10;;;;;;;14.43;100.00;101241.19;4969015;28;20034;-86
2022/10/23 04:20:42;;;;;;;2.53;0.10;;;;;;;14.39;100.00;101233.75;4966151;28;20320;-84
2022/10/23 04:23:08;;;;;;;0.90;0.17;;;;;;;14.35;100.00;101237.63;4969688;28;20034;-82
2022/10/23 04:25:33;;;;;;;2.63;0.10;;;;;;;14.34;100.00;101230.75;4965774;28;20042;-83
2022/10/23 04:27:59;;;;;;;2.03;0.20;;;;;;;14.40;100.00;101224.91;4966954;28;20480;-83
2022/10/23 04:30:24;;;;;;;1.35;0.10;;;;;;;14.42;100.00;101225.63;4971264;28;20034;-84
2022/10/23 04:32:50;;;;;;;0.93;0.10;;;;;;;14.43;100.00;101219.41;4983263;28;20315;-84
2022/10/23 04:35:16;;;;;;;2.22;0.35;;;;;;;14.43;100.00;101222.03;4969522;28;20489;-85
2022/10/23 04:37:42;;;;;;;0.90;0.10;;;;;;;14.43;100.00;101222.03;4988597;28;20494;-86
2022/10/23 04:40:08;;;;;;;0.98;0.10;;;;;;;14.43;100.00;101222.84;4971146;28;20022;-86
2022/10/23 04:42:34;;;;;;;3.80;0.63;;;;;;;14.46;100.00;101226.97;4966583;28;20082;-86
2022/10/23 04:44:59;;;;;;;0.47;0.25;;;;;;;14.45;100.00;101225.31;4968723;28;20062;-86
2022/10/23 04:47:24;;;;;;;4.50;0.10;;;;;;;14.45;100.00;101227.94;4971157;28;20034;-84
2022/10/23 04:49:50;;;;;;;3.00;0.20;;;;;;;14.47;100.00;101231.22;4967669;28;20171;-86
2022/10/23 04:52:15;;;;;;;2.88;0.10;;;;;;;14.46;100.00;101225.16;4964586;23;20863;-60
2022/10/23 04:54:41;;;;;;;1.95;0.17;;;;;;;14.42;100.00;101223.81;4950866;29;20023;-64
2022/10/23 04:57:06;;;;;;;1.23;0.10;;;;;;;14.40;100.00;101224.91;4949296;28;20565;-61
2022/10/23 04:59:32;;;;;;;1.10;0.20;;;;;;;14.42;100.00;101225.63;4950845;28;20034;-61
2022/10/23 05:01:57;;;;;;;2.72;0.10;;;;;;;14.41;100.00;101221.31;4949022;28;20123;-63
2022/10/23 05:04:23;;;;;;;5.00;0.10;;;;;;;14.42;100.00;101229.06;4950789;28;20050;-60
2022/10/23 05:06:48;;;;;;;7.30;0.20;;;;;;;14.43;100.00;101227.25;4948589;28;20107;-63
2022/10/23 05:09:14;;;;;;;3.67;0.13;;;;;;;14.41;100.00;101219.53;4948726;29;20364;-66
2022/10/23 05:11:39;;;;;;;1.77;0.20;;;;;;;14.44;100.00;101218.41;4949113;29;20105;-65
2022/10/23 05:14:05;;;;;;;1.27;0.57;;;;;;;14.45;100.00;101220.06;4950917;28;20034;-64
2022/10/23 05:16:41;;;;;;;3.55;0.20;;;;;;;14.46;100.00;101224.34;4949178;29;20027;-61
2022/10/23 05:19:09;;;;;;;5.15;0.38;;;;;;;14.49;100.00;101224.03;4946991;29;20042;-64
2022/10/23 05:21:38;;;;;;;0.60;0.20;;;;;;;14.50;100.00;101225.69;4949787;28;20486;-61
2022/10/23 05:24:03;;;;;;;0.30;0.10;;;;;;;14.52;100.00;101223.75;4949608;29;20853;-63
2022/10/23 05:26:30;;;;;;;3.83;0.17;;;;;;;14.49;100.00;101217.00;4949528;28;20037;-62
2022/10/23 05:28:56;;;;;;;0.93;0.10;;;;;;;14.46;100.00;101224.34;4950371;28;20047;-62
2022/10/23 05:31:23;;;;;;;3.22;0.52;;;;;;;14.43;100.00;101219.41;4949391;29;20038;-63
2022/10/23 05:33:49;;;;;;;1.48;0.10;;;;;;;14.42;100.00;101213.31;4948352;28;20067;-61
2022/10/23 05:36:15;;;;;;;14.10;0.40;;;;;;;14.43;100.00;101214.16;4948823;28;20034;-62
2022/10/23 05:38:41;;;;;;;0.60;0.20;;;;;;;14.44;100.00;101213.19;4944611;29;20031;-64
2022/10/23 05:41:07;;;;;;;2.53;0.20;;;;;;;14.47;100.00;101226.00;4946767;28;20038;-61
2022/10/23 05:43:32;;;;;;;1.30;0.63;;;;;;;14.49;100.00;101234.53;4947617;28;20221;-63
2022/10/23 05:45:58;;;;;;;2.55;0.20;;;;;;;14.47;100.00;101231.22;4948145;28;20046;-63
2022/10/23 05:48:24;;;;;;;2.72;0.45;;;;;;;14.48;100.00;101230.25;4942245;29;20047;-61
2022/10/23 05:50:49;;;;;;;1.10;0.20;;;;;;;14.47;100.00;101231.22;4948605;29;20122;-61
2022/10/23 05:53:14;;;;;;;1.83;0.20;;;;;;;14.48;100.00;101233.72;4949924;29;20062;-61
2022/10/23 05:55:40;;;;;;;2.90;0.10;;;;;;;14.47;100.00;101236.47;4950472;28;20030;-62
2022/10/23 05:58:06;;;;;;;5.75;0.30;;;;;;;14.47;100.00;101244.34;4949763;28;20038;-62
2022/10/23 06:00:31;;;;;;;4.45;0.20;;;;;;;14.44;100.00;101250.72;4946139;28;20030;-62
2022/10/23 06:03:00;;;;;;;1.85;0.45;;;;;;;14.43;100.00;101251.69;4948592;28;20487;-64
2022/10/23 06:05:26;;;;;;;1.15;0.10;;;;;;;14.47;100.00;101253.03;4949934;28;20028;-61
2022/10/23 06:07:51;;;;;;;0.47;0.10;;;;;;;14.49;100.00;101255.50;4949514;28;20127;-65
2022/10/23 06:10:17;;;;;;;2.88;0.20;;;;;;;14.52;100.00;101263.91;4947957;29;20042;-63
2022/10/23 06:12:42;;;;;;;2.78;0.20;;;;;;;14.54;100.00;101258.50;4949200;28;20457;-60
2022/10/23 06:15:08;;;;;;;10.57;0.45;;;;;;;14.54;100.00;101258.50;4949712;28;20023;-63
2022/10/23 06:17:34;;;;;;;1.70;0.20;;;;;;;14.53;100.00;101262.91;4948685;28;20042;-62
2022/10/23 06:20:02;;;;;;;1.95;0.15;;;;;;;14.53;100.00;101256.84;4947152;28;20039;-61
2022/10/23 06:22:28;;;;;;;1.35;0.30;;;;;;;14.54;100.00;101266.38;4949948;29;20114;-61
2022/10/23 06:24:54;;;;;;;1.40;0.20;;;;;;;14.55;100.00;101276.72;4949703;28;20028;-63
2022/10/23 06:27:20;;;;;;;1.63;0.30;;;;;;;14.57;100.00;101272.13;4949110;28;20038;-61
2022/10/23 06:29:46;;;;;;;2.90;0.30;;;;;;;14.57;100.00;101280.00;4949566;28;20162;-63
2022/10/23 06:32:11;;;;;;;1.00;0.20;;;;;;;14.58;100.00;101279.03;4949529;28;20054;-64
2022/10/23 06:34:37;;;;;;;0.40;0.20;;;;;;;14.60;100.00;101278.88;4949652;28;20113;-61
2022/10/23 06:37:02;;;;;;;2.08;0.20;;;;;;;14.60;100.00;101284.13;4943103;28;20189;-62
2022/10/23 06:39:28;;;;;;;1.73;0.20;;;;;;;14.60;100.00;101290.19;4930396;29;20055;-63
2022/10/23 06:41:53;;;;;;;3.03;0.20;;;;;;;14.61;100.00;101291.00;4939676;29;20031;-63
2022/10/23 06:44:19;;;;;;;1.13;0.20;;;;;;;14.59;100.00;101285.91;4949670;29;20344;-60
2022/10/23 06:46:47;;;;;;;2.85;0.28;;;;;;;14.59;100.00;101298.22;4949349;29;20130;-60
2022/10/23 06:49:16;;;;;;;1.77;0.40;;;;;;;14.59;100.00;101298.22;4949257;28;20546;-65
2022/10/23 06:51:42;;;;;;;2.20;0.30;;;;;;;14.63;100.00;101303.97;4949172;28;20241;-63
2022/10/23 06:54:08;;;;;;;4.65;0.30;;;;;;;14.64;100.00;101297.75;4949328;28;20194;-64
2022/10/23 06:56:34;;;;;;;1.30;0.30;;;;;;;14.66;100.00;101307.09;4949386;28;20027;-63
2022/10/23 06:59:00;;;;;;;2.30;0.40;;;;;;;14.66;100.00;101301.03;4949260;28;20107;-64
2022/10/23 07:01:26;;;;;;;3.13;0.35;;;;;;;14.65;100.00;101297.59;4946253;28;20036;-62
2022/10/23 07:03:51;;;;;;;3.10;0.30;;;;;;;14.66;100.00;101296.59;4949650;28;20042;-60
2022/10/23 07:06:16;;;;;;;1.35;0.40;;;;;;;14.70;100.00;101297.13;4947459;28;20050;-62
2022/10/23 07:08:42;;;;;;;5.03;0.50;;;;;;;14.71;100.00;101296.97;4947444;28;20042;-64
2022/10/23 07:11:09;;;;;;;2.22;0.50;;;;;;;14.71;100.00;101312.72;4948671;29;20042;-61
2022/10/23 07:13:37;;;;;;;6.88;0.60;;;;;;;14.68;100.00;101310.41;4946203;28;20031;-64
2022/10/23 07:16:17;;;;;;;3.97;0.40;;;;;;;14.63;100.00;101298.75;4941149;29;20549;-65
2022/10/23 07:18:43;;;;;;;3.80;0.60;;;;;;;14.58;100.00;101310.50;4930482;29;20475;-65
2022/10/23 07:21:09;;;;;;;2.55;0.40;;;;;;;14.56;100.00;101307.19;4943820;28;20034;-63
2022/10/23 07:23:35;;;;;;;1.38;0.50;;;;;;;14.53;100.00;101311.91;4950836;28;20031;-64
2022/10/23 07:26:10;;;;;;;3.20;0.35;;;;;;;14.53;100.00;101311.91;4949175;28;20039;-62
2022/10/23 07:28:37;;;;;;;1.58;0.57;;;;;;;14.52;100.00;101312.88;4947802;28;20039;-64
2022/10/23 07:31:03;;;;;;;4.53;0.35;;;;;;;14.52;100.00;101305.84;4950040;28;20459;-65
2022/10/23 07:33:28;;;;;;;0.77;0.30;;;;;;;14.51;100.00;101316.50;4952559;29;20042;-65
2022/10/23 07:35:54;;;;;;;5.47;0.65;;;;;;;14.45;100.00;101322.31;4951889;28;20035;-62
2022/10/23 07:38:20;;;;;;;3.95;0.60;;;;;;;14.43;100.00;101324.28;4951299;28;20073;-64
2022/10/23 07:40:45;;;;;;;1.35;0.40;;;;;;;14.41;100.00;101327.03;4947199;28;20038;-61
2022/10/23 07:43:11;;;;;;;0.80;0.40;;;;;;;14.43;100.00;101326.88;4947493;28;20036;-63
2022/10/23 07:45:36;;;;;;;4.93;0.50;;;;;;;14.45;100.00;101332.81;4950892;28;20041;-63
2022/10/23 07:48:02;;;;;;;4.30;0.70;;;;;;;14.50;100.00;101330.56;4950326;28;20035;-64
2022/10/23 07:50:27;;;;;;;2.28;0.50;;;;;;;14.55;100.00;101330.94;4948642;29;20143;-64
2022/10/23 07:52:53;;;;;;;1.55;0.50;;;;;;;14.58;100.00;101335.91;4950168;28;20138;-63
2022/10/23 07:55:18;;;;;;;5.40;0.40;;;;;;;14.59;100.00;101340.16;4949993;28;20078;-66
2022/10/23 07:57:44;;;;;;;3.53;0.47;;;;;;;14.60;100.00;101345.25;4950875;28;20039;-69
2022/10/23 08:00:11;;;;;;;1.90;0.45;;;;;;;14.59;100.00;101348.84;4951361;29;20038;-63
2022/10/23 08:02:36;;;;;;;5.38;0.60;;;;;;;14.60;100.00;101345.25;4951779;28;20472;-63
2022/10/23 08:05:02;;;;;;;3.28;0.73;;;;;;;14.61;100.00;101338.22;4952254;29;20470;-62
2022/10/23 08:07:27;;;;;;;8.15;0.52;;;;;;;14.62;100.00;101336.44;4951492;28;20159;-67
2022/10/23 08:09:53;;;;;;;4.45;0.45;;;;;;;14.62;100.00;101341.66;4952184;29;20460;-66
2022/10/23 08:12:18;;;;;;;2.85;0.70;;;;;;;14.64;100.00;101343.16;4951704;29;20521;-62
2022/10/23 08:14:44;;;;;;;3.92;0.65;;;;;;;14.69;100.00;101343.53;4952104;28;20028;-63
2022/10/23 08:17:10;;;;;;;6.03;0.70;;;;;;;14.72;100.00;101345.03;4951824;28;20029;-63
2022/10/23 08:19:36;;;;;;;2.10;0.50;;;;;;;14.76;100.00;101349.00;4951894;28;20027;-62
2022/10/23 08:22:02;;;;;;;4.63;0.82;;;;;;;14.79;100.00;101339.03;4947429;28;20109;-62
2022/10/23 08:24:29;;;;;;;3.13;0.60;;;;;;;14.85;100.00;101356.78;4941308;29;20043;-62
2022/10/23 08:26:54;;;;;;;4.45;0.65;;;;;;;14.85;100.00;101345.47;4933662;29;20529;-61
2022/10/23 08:29:20;;;;;;;4.28;0.80;;;;;;;14.84;100.00;101352.53;4951734;29;20466;-63
2022/10/23 08:31:46;;;;;;;1.15;0.50;;;;;;;14.81;100.00;101339.69;4945351;28;20111;-63
2022/10/23 08:34:12;;;;;;;2.70;1.20;;;;;;;14.80;100.00;101342.47;4947028;28;20031;-62
2022/10/23 08:36:38;;;;;;;6.93;0.85;;;;;;;14.83;100.00;101343.00;4947676;28;20031;-62
2022/10/23 08:39:04;;;;;;;5.70;0.70;;;;;;;14.88;100.00;101343.38;4949783;29;20482;-62
2022/10/23 08:41:34;;;;;;;4.43;0.75;;;;;;;14.88;100.00;101340.75;4944066;28;20474;-61
2022/10/23 08:44:05;;;;;;;4.07;1.30;;;;;;;14.82;100.00;101346.59;4947825;29;20087;-62
2022/10/23 08:46:40;;;;;;;5.10;0.90;;;;;;;14.80;100.00;101355.59;4947582;28;20035;-69
2022/10/23 08:49:28;;;;;;;13.45;1.02;;;;;;;14.70;100.00;101353.03;4946435;28;20035;-66
2022/10/23 08:51:56;;;;;;;5.43;1.33;;;;;;;14.56;100.00;101358.81;4946136;28;22047;-68
2022/10/23 08:54:25;;;;;;;3.90;1.05;;;;;;;14.37;100.00;101351.03;4948850;29;20027;-66
2022/10/23 08:57:08;;;;;;;4.88;0.98;;;;;;;14.16;100.00;101348.69;4948126;28;20035;-64
2022/10/23 08:59:44;;;;;;;2.97;1.33;;;;;;;14.06;100.00;101353.97;4942193;28;20054;-66
2022/10/23 09:02:25;;;;;;;4.65;1.35;;;;;;;14.08;100.00;101357.28;4932203;29;20122;-66
2022/10/23 09:04:54;;;;;;;7.57;1.70;;;;;;;14.12;100.00;101349.97;4944015;29;20463;-72
2022/10/23 09:07:58;;;;;;;6.78;1.98;;;;;;;14.18;100.00;101354.59;4949863;28;20043;-69
2022/10/23 09:10:50;;;;;;;5.72;1.50;;;;;;;14.12;100.00;101361.25;4946543;29;20475;-70
2022/10/23 09:13:31;;;;;;;5.32;1.77;;;;;;;14.10;100.00;101363.22;4942518;29;20070;-73
2022/10/23 09:16:23;;;;;;;6.40;1.52;;;;;;;14.12;100.00;101363.06;4947712;29;20129;-62
2022/10/23 09:18:49;;;;;;;3.63;1.52;;;;;;;14.16;100.00;101360.00;4947730;29;20045;-63
2022/10/23 09:21:14;;;;;;;9.57;2.55;;;;;;;14.21;100.00;101362.97;4949346;28;20094;-70
2022/10/23 09:23:40;;;;;;;6.55;2.13;;;;;;;14.24;100.00;101365.31;4945736;28;20031;-65
2022/10/23 09:26:17;;;;;;;5.22;1.98;;;;;;;14.29;100.00;101364.88;4949163;28;20501;-69
2022/10/23 09:28:49;;;;;;;7.90;2.17;;;;;;;14.33;100.00;101370.66;4947544;28;20038;-65
2022/10/23 09:31:17;;;;;;;4.97;2.05;;;;;;;14.35;100.00;101363.47;4948114;29;20039;-66
2022/10/23 09:33:59;;;;;;;5.88;1.75;;;;;;;14.35;100.00;101369.53;4948770;28;20024;-66
2022/10/23 09:36:28;;;;;;;5.93;1.88;;;;;;;14.37;100.00;101366.78;4946298;29;20039;-66
2022/10/23 09:38:55;;;;;;;9.45;1.77;;;;;;;14.35;100.00;101368.72;4946515;29;20039;-66
2022/10/23 09:41:50;;;;;;;6.28;2.17;;;;;;;14.27;100.00;101377.31;4946603;29;20043;-66
2022/10/23 09:44:15;;;;;;;7.28;1.27;;;;;;;14.21;100.00;101378.72;4927275;28;20076;-67
2022/10/23 09:46:44;;;;;;;3.15;1.08;;;;;;;14.18;100.00;101379.00;4949237;29;20027;-67
2022/10/23 09:49:21;;;;;;;5.28;1.25;;;;;;;14.18;100.00;101389.47;4950099;28;20039;-65
2022/10/23 09:52:00;;;;;;;3.50;1.25;;;;;;;14.16;100.00;101386.22;4948769;28;20507;-66
2022/10/23 09:54:29;;;;;;;2.85;0.82;;;;;;;14.16;100.00;101386.22;4948364;28;20073;-66
2022/10/23 09:56:58;;;;;;;5.50;1.15;;;;;;;14.16;100.00;101395.88;4947467;28;20050;-67
2022/10/23 09:59:30;;;;;;;4.70;0.93;;;;;;;14.11;100.00;101388.44;4949040;28;20434;-65
2022/10/23 10:01:58;;;;;;;9.70;1.63;;;;;;;14.14;100.00;101389.94;4941615;28;20031;-65
2022/10/23 10:04:35;;;;;;;3.67;0.77;;;;;;;14.14;100.00;101377.66;4948167;28;20558;-64
2022/10/23 10:07:03;;;;;;;3.75;1.20;;;;;;;14.20;100.00;101384.91;4948549;28;20039;-68
2022/10/23 10:09:28;;;;;;;6.72;1.63;;;;;;;14.24;100.00;101388.06;4948639;28;20041;-64
2022/10/23 10:12:00;;;;;;;4.30;1.60;;;;;;;14.25;100.00;101389.72;4948620;29;20153;-64
2022/10/23 10:14:42;;;;;;;9.75;1.48;;;;;;;14.28;100.00;101386.81;4946586;28;20459;-65
2022/10/23 10:17:34;;;;;;;10.05;1.55;;;;;;;14.32;100.00;101389.97;4949680;28;20106;-65
2022/10/23 10:20:26;;;;;;;6.43;1.60;;;;;;;14.36;100.00;101392.16;4948505;28;20031;-70
2022/10/23 10:23:00;;;;;;;6.25;1.92;;;;;;;14.43;100.00;101397.69;4925137;28;20054;-65
2022/10/23 10:25:38;;;;;;;4.22;1.58;;;;;;;14.45;100.00;101396.56;4948855;29;20046;-66
2022/10/23 10:28:22;;;;;;;8.43;1.70;;;;;;;14.47;100.00;101391.16;4946227;28;20411;-66
2022/10/23 10:31:08;;;;;;;5.32;2.33;;;;;;;14.53;100.00;101395.81;4942337;28;20055;-66
2022/10/23 10:33:57;;;;;;;5.40;2.13;;;;;;;14.57;100.00;101402.44;4941147;29;20065;-64
2022/10/23 10:36:34;;;;;;;5.07;1.90;;;;;;;14.62;100.00;101391.50;4950021;29;20043;-66
2022/10/23 10:39:02;;;;;;;5.93;1.77;;;;;;;14.66;100.00;101382.34;4950190;28;20537;-67
2022/10/23 10:41:52;;;;;;;11.90;2.10;;;;;;;14.74;100.00;101380.63;4946850;28;20031;-67
2022/10/23 10:44:23;;;;;;;4.18;1.95;;;;;;;14.85;100.00;101387.44;4946422;29;20142;-65
2022/10/23 10:46:55;;;;;;;6.85;2.20;;;;;;;14.88;100.00;101387.97;4946164;29;20098;-65
2022/10/23 10:49:51;;;;;;;6.78;2.22;;;;;;;14.89;100.00;101394.06;4947600;28;20181;-64
2022/10/23 10:52:36;;;;;;;7.85;2.63;;;;;;;14.88;100.00;101382.72;4944618;29;20043;-65
2022/10/23 10:55:26;;;;;;;7.20;2.60;;;;;;;14.94;100.00;101384.75;4948357;28;20065;-66
2022/10/23 10:58:00;;;;;;;5.53;1.92;;;;;;;15.07;100.00;101375.69;4951089;28;20039;-64
2022/10/23 11:00:29;;;;;;;10.38;2.50;;;;;;;15.18;100.00;101378.03;4951976;28;20081;-65
2022/10/23 11:03:16;;;;;;;7.90;2.47;;;;;;;15.22;100.00;101377.59;4950792;28;20031;-69
2022/10/23 11:05:49;;;;;;;8.18;2.15;;;;;;;15.31;100.00;101378.47;4950942;29;20041;-64
2022/10/23 11:08:26;;;;;;;6.55;3.28;;;;;;;15.37;100.00;101377.88;4936223;29;20595;-66
2022/10/23 11:10:58;;;;;;;11.85;2.90;;;;;;;15.40;100.00;101374.94;4947060;28;20038;-64
2022/10/23 11:13:34;;;;;;;10.02;2.88;;;;;;;15.41;100.00;101366.09;4951796;28;20063;-64
2022/10/23 11:16:20;;;;;;;9.95;3.38;;;;;;;15.37;100.00;101370.00;4936727;28;20035;-67
2022/10/23 11:19:04;;;;;;;9.57;2.80;;;;;;;15.30;100.00;101358.44;4943327;29;20101;-63
2022/10/23 11:21:42;;;;;;;7.50;3.08;;;;;;;15.31;100.00;101367.16;4949841;29;20070;-67
2022/10/23 11:24:17;;;;;;;10.88;2.95;;;;;;;15.33;100.00;101370.44;4950216;29;20035;-64
2022/10/23 11:27:02;;;;;;;;;;;;;;;15.31;100.00;101367.97;4947779;28;20042;-65
2022/10/23 11:29:51;;;;;;;10.23;3.80;;;;;;;15.33;100.00;101370.44;4950112;28;19940;-65
2022/10/23 11:32:42;;;;;;;13.68;4.25;;;;;;;15.32;100.00;101367.00;4950062;29;20042;-65